createdAt,value
2018-08-06T00:03:01.818Z,15.66
2018-08-06T00:06:04.779Z,15.38
2018-08-06T00:09:07.091Z,15.36
2018-08-06T00:12:09.524Z,15.31
2018-08-06T00:15:13.124Z,15.37
2018-08-06T00:18:15.467Z,15.55
2018-08-06T00:21:17.776Z,15.68
2018-08-06T00:24:20.142Z,15.74
2018-08-06T00:27:22.585Z,15.83
2018-08-06T00:30:25.104Z,15.78
2018-08-06T00:33:27.415Z,15.75
2018-08-06T00:36:29.665Z,15.89
2018-08-06T00:39:32.762Z,15.92
2018-08-06T00:42:35.573Z,15.87
2018-08-06T00:45:38.124Z,15.79
2018-08-06T00:48:40.362Z,15.76
2018-08-06T00:51:42.654Z,15.71
2018-08-06T00:54:44.949Z,15.70
2018-08-06T00:57:47.251Z,15.68
2018-08-06T01:00:49.529Z,15.62
2018-08-06T01:03:51.968Z,15.62
2018-08-06T01:06:54.310Z,15.58
2018-08-06T01:09:56.658Z,15.30
2018-08-06T01:12:59.059Z,15.25
2018-08-06T01:16:01.369Z,15.21
2018-08-06T01:19:03.889Z,15.23
2018-08-06T01:22:06.309Z,15.31
2018-08-06T01:25:08.824Z,15.36
2018-08-06T01:28:11.112Z,15.45
2018-08-06T01:31:13.459Z,15.46
2018-08-06T01:34:15.727Z,15.40
2018-08-06T01:37:17.989Z,15.10
2018-08-06T01:40:20.293Z,14.98
2018-08-06T01:43:22.633Z,14.86
2018-08-06T01:46:24.907Z,14.86
2018-08-06T01:49:27.169Z,14.94
2018-08-06T01:52:29.495Z,14.99
2018-08-06T01:55:31.727Z,15.08
2018-08-06T01:58:33.968Z,15.13
2018-08-06T02:01:36.291Z,15.13
2018-08-06T02:04:38.555Z,15.11
2018-08-06T02:07:41.144Z,14.79
2018-08-06T02:10:43.444Z,14.28
2018-08-06T02:13:45.812Z,14.19
2018-08-06T02:16:48.111Z,14.27
2018-08-06T02:19:50.387Z,14.32
2018-08-06T02:22:52.760Z,14.28
2018-08-06T02:25:55.077Z,14.20
2018-08-06T02:28:57.330Z,14.24
2018-08-06T02:31:59.522Z,14.27
2018-08-06T02:35:01.856Z,14.28
2018-08-06T02:38:04.229Z,14.25
2018-08-06T02:41:06.549Z,14.20
2018-08-06T02:44:08.841Z,14.00
2018-08-06T02:47:11.164Z,13.97
2018-08-06T02:50:13.429Z,14.00
2018-08-06T02:53:15.716Z,14.08
2018-08-06T02:56:17.985Z,14.12
2018-08-06T02:59:20.302Z,14.10
2018-08-06T03:02:22.546Z,14.07
2018-08-06T03:05:24.806Z,14.14
2018-08-06T03:08:27.132Z,14.18
2018-08-06T03:11:29.328Z,14.25
2018-08-06T03:14:31.600Z,14.22
2018-08-06T03:17:33.872Z,14.09
2018-08-06T03:20:36.201Z,14.02
2018-08-06T03:23:38.412Z,13.90
2018-08-06T03:26:40.702Z,13.88
2018-08-06T03:29:43.004Z,13.95
2018-08-06T03:32:46.504Z,13.91
2018-08-06T03:35:48.767Z,13.98
2018-08-06T03:38:51.035Z,13.98
2018-08-06T03:41:53.240Z,13.98
2018-08-06T03:44:55.613Z,13.92
2018-08-06T03:47:57.932Z,13.92
2018-08-06T03:51:01.204Z,13.96
2018-08-06T03:54:03.553Z,13.96
2018-08-06T03:57:06.773Z,13.90
2018-08-06T04:00:15.857Z,13.84
2018-08-06T04:03:18.120Z,13.78
2018-08-06T04:06:20.426Z,13.78
2018-08-06T04:09:22.765Z,13.76
2018-08-06T04:12:25.097Z,13.58
2018-08-06T04:15:27.424Z,13.63
2018-08-06T04:18:29.651Z,13.59
2018-08-06T04:21:31.926Z,13.64
2018-08-06T04:24:34.156Z,13.73
2018-08-06T04:27:36.824Z,13.81
2018-08-06T04:30:39.082Z,13.87
2018-08-06T04:33:41.331Z,14.00
2018-08-06T04:36:43.760Z,14.20
2018-08-06T04:39:46.082Z,14.31
2018-08-06T04:42:48.402Z,14.70
2018-08-06T04:45:50.756Z,17.60
2018-08-06T04:48:53.056Z,20.20
2018-08-06T04:51:55.335Z,21.93
2018-08-06T04:54:57.664Z,23.21
2018-08-06T04:57:59.917Z,24.02
2018-08-06T05:01:02.212Z,24.81
2018-08-06T05:04:04.850Z,25.21
2018-08-06T05:07:07.279Z,25.93
2018-08-06T05:10:09.537Z,26.19
2018-08-06T05:13:12.028Z,26.49
2018-08-06T05:16:14.293Z,27.16
2018-08-06T05:19:16.541Z,27.86
2018-08-06T05:22:18.868Z,27.15
2018-08-06T05:25:21.196Z,27.05
2018-08-06T05:28:23.529Z,27.37
2018-08-06T05:31:26.863Z,27.65
2018-08-06T05:34:29.168Z,28.49
2018-08-06T05:37:32.415Z,28.46
2018-08-06T05:40:34.768Z,27.41
2018-08-06T05:43:37.607Z,25.69
2018-08-06T05:46:39.829Z,26.86
2018-08-06T05:49:42.129Z,28.38
2018-08-06T05:52:44.388Z,28.02
2018-08-06T05:55:46.672Z,28.51
2018-08-06T05:58:48.881Z,29.56
2018-08-06T06:01:51.215Z,29.39
2018-08-06T06:04:54.541Z,29.47
2018-08-06T06:07:57.037Z,29.72
2018-08-06T06:10:59.274Z,30.55
2018-08-06T06:14:01.585Z,29.72
2018-08-06T06:17:03.908Z,29.58
2018-08-06T06:20:06.917Z,30.62
2018-08-06T06:23:09.201Z,30.70
2018-08-06T06:26:11.489Z,30.66
2018-08-06T06:29:13.865Z,30.46
2018-08-06T06:32:16.220Z,29.59
2018-08-06T06:35:18.526Z,29.74
2018-08-06T06:38:20.840Z,30.04
2018-08-06T06:41:24.191Z,31.06
2018-08-06T06:44:26.548Z,31.80
2018-08-06T06:47:28.839Z,31.69
2018-08-06T06:50:31.165Z,31.32
2018-08-06T06:53:33.421Z,31.19
2018-08-06T06:56:35.733Z,31.66
2018-08-06T06:59:37.906Z,32.34
2018-08-06T07:02:41.084Z,32.26
2018-08-06T07:05:43.330Z,30.73
2018-08-06T07:08:45.632Z,31.85
2018-08-06T07:11:47.871Z,31.85
2018-08-06T07:14:50.205Z,31.77
2018-08-06T07:17:52.576Z,31.33
2018-08-06T07:20:54.819Z,31.37
2018-08-06T07:23:58.130Z,31.81
2018-08-06T07:27:00.334Z,31.22
2018-08-06T07:30:02.782Z,31.03
2018-08-06T07:33:05.012Z,31.15
2018-08-06T07:36:07.222Z,30.42
2018-08-06T07:39:10.698Z,30.34
2018-08-06T07:42:12.914Z,29.18
2018-08-06T07:45:17.317Z,28.64
2018-08-06T07:48:19.656Z,28.10
2018-08-06T07:51:22.029Z,28.92
2018-08-06T07:54:24.309Z,29.08
2018-08-06T07:57:26.542Z,29.66
2018-08-06T08:00:28.805Z,29.82
2018-08-06T08:03:31.023Z,30.10
2018-08-06T08:06:33.305Z,29.18
2018-08-06T08:09:35.675Z,28.73
2018-08-06T08:12:37.996Z,28.18
2018-08-06T08:15:40.364Z,28.52
2018-08-06T08:18:42.640Z,27.76
2018-08-06T08:21:45.014Z,27.27
2018-08-06T08:24:47.350Z,27.31
2018-08-06T08:27:49.668Z,28.13
2018-08-06T08:30:52.017Z,28.63
2018-08-06T08:33:54.386Z,28.75
2018-08-06T08:36:56.605Z,28.85
2018-08-06T08:39:58.901Z,28.52
2018-08-06T08:43:01.168Z,28.43
2018-08-06T08:46:03.472Z,28.29
2018-08-06T08:49:05.851Z,28.59
2018-08-06T08:52:08.236Z,28.87
2018-08-06T08:55:12.000Z,28.24
2018-08-06T08:58:14.262Z,28.82
2018-08-06T09:01:16.564Z,29.16
2018-08-06T09:04:18.791Z,29.30
2018-08-06T09:07:21.136Z,29.15
2018-08-06T09:10:23.514Z,29.43
2018-08-06T09:13:25.806Z,29.58
2018-08-06T09:16:28.105Z,29.14
2018-08-06T09:19:30.374Z,29.34
2018-08-06T09:22:32.696Z,29.50
2018-08-06T09:25:37.458Z,29.56
2018-08-06T09:28:39.813Z,30.23
2018-08-06T09:31:42.099Z,30.96
2018-08-06T09:34:44.423Z,31.01
2018-08-06T09:37:46.865Z,31.32
2018-08-06T09:40:49.130Z,31.53
2018-08-06T09:43:51.438Z,31.53
2018-08-06T09:46:53.733Z,31.73
2018-08-06T09:49:55.977Z,31.71
2018-08-06T09:52:59.291Z,31.70
2018-08-06T09:56:01.553Z,31.72
2018-08-06T09:59:04.235Z,31.78
2018-08-06T10:02:06.654Z,31.96
2018-08-06T10:05:08.975Z,32.14
2018-08-06T10:08:11.314Z,32.15
2018-08-06T10:11:13.576Z,32.26
2018-08-06T10:14:15.911Z,32.55
2018-08-06T10:17:18.139Z,32.41
2018-08-06T10:20:22.103Z,32.24
2018-08-06T10:23:24.423Z,31.93
2018-08-06T10:26:26.817Z,32.09
2018-08-06T10:29:29.759Z,32.23
2018-08-06T10:32:32.069Z,32.41
2018-08-06T10:35:34.368Z,32.53
2018-08-06T10:38:36.692Z,32.55
2018-08-06T10:41:39.436Z,32.45
2018-08-06T10:44:41.721Z,32.61
2018-08-06T10:47:44.077Z,32.70
2018-08-06T10:50:46.325Z,32.75
2018-08-06T10:53:48.584Z,33.18
2018-08-06T10:56:50.914Z,32.75
2018-08-06T10:59:53.211Z,32.83
2018-08-06T11:02:55.590Z,33.14
2018-08-06T11:05:58.020Z,33.18
2018-08-06T11:09:00.381Z,33.13
2018-08-06T11:12:02.625Z,32.59
2018-08-06T11:15:07.237Z,32.55
2018-08-06T11:18:09.516Z,31.67
2018-08-06T11:21:11.869Z,31.58
2018-08-06T11:24:14.111Z,32.19
2018-08-06T11:27:16.505Z,32.72
2018-08-06T11:30:19.922Z,33.43
2018-08-06T11:33:44.334Z,33.71
2018-08-06T11:36:46.608Z,33.25
2018-08-06T11:39:48.871Z,33.94
2018-08-06T11:42:51.106Z,33.61
2018-08-06T11:45:53.367Z,33.61
2018-08-06T11:48:55.711Z,33.77
2018-08-06T11:51:59.011Z,34.38
2018-08-06T11:55:01.232Z,34.33
2018-08-06T11:58:03.646Z,33.73
2018-08-06T12:01:06.460Z,33.91
2018-08-06T12:04:08.709Z,34.57
2018-08-06T12:07:11.028Z,34.53
2018-08-06T12:10:14.893Z,33.77
2018-08-06T12:13:17.128Z,34.36
2018-08-06T12:16:19.477Z,34.90
2018-08-06T12:19:21.739Z,34.91
2018-08-06T12:22:24.113Z,33.79
2018-08-06T12:25:26.457Z,33.86
2018-08-06T12:28:28.866Z,33.94
2018-08-06T12:31:31.273Z,33.76
2018-08-06T12:34:33.569Z,33.45
2018-08-06T12:37:35.862Z,34.62
2018-08-06T12:40:38.124Z,34.39
2018-08-06T12:43:40.452Z,34.96
2018-08-06T12:46:42.803Z,33.93
2018-08-06T12:49:45.096Z,33.67
2018-08-06T12:52:47.452Z,33.78
2018-08-06T12:55:49.812Z,33.55
2018-08-06T12:58:52.138Z,33.12
2018-08-06T13:01:54.532Z,33.17
2018-08-06T13:04:56.829Z,33.43
2018-08-06T13:07:59.296Z,33.80
2018-08-06T13:11:01.653Z,34.30
2018-08-06T13:14:04.103Z,34.12
2018-08-06T13:17:06.447Z,33.82
2018-08-06T13:20:08.976Z,33.50
2018-08-06T13:23:11.321Z,33.59
2018-08-06T13:26:13.606Z,34.05
2018-08-06T13:29:15.902Z,34.41
2018-08-06T13:32:18.178Z,35.34
2018-08-06T13:35:20.379Z,35.95
2018-08-06T13:38:22.779Z,36.15
2018-08-06T13:41:25.104Z,36.00
2018-08-06T13:44:27.416Z,35.35
2018-08-06T13:47:29.839Z,35.81
2018-08-06T13:50:32.121Z,36.69
2018-08-06T13:53:35.454Z,36.97
2018-08-06T13:56:37.825Z,35.84
2018-08-06T13:59:40.336Z,35.53
2018-08-06T14:02:42.581Z,35.46
2018-08-06T14:05:44.924Z,36.03
2018-08-06T14:08:47.349Z,35.31
2018-08-06T14:11:49.750Z,35.24
2018-08-06T14:14:52.091Z,36.80
2018-08-06T14:17:54.401Z,37.67
2018-08-06T14:20:56.748Z,38.31
2018-08-06T14:23:59.005Z,38.53
2018-08-06T14:27:01.530Z,39.14
2018-08-06T14:30:05.758Z,38.79
2018-08-06T14:33:08.036Z,39.41
2018-08-06T14:36:10.308Z,39.02
2018-08-06T14:39:12.808Z,37.72
2018-08-06T14:42:15.222Z,36.84
2018-08-06T14:45:17.556Z,35.81
2018-08-06T14:48:20.013Z,34.59
2018-08-06T14:51:22.232Z,34.74
2018-08-06T14:54:24.604Z,33.93
2018-08-06T14:57:26.967Z,34.48
2018-08-06T15:00:30.216Z,35.36
2018-08-06T15:03:32.510Z,36.61
2018-08-06T15:06:34.935Z,38.00
2018-08-06T15:09:37.245Z,38.16
2018-08-06T15:12:39.668Z,37.72
2018-08-06T15:15:42.036Z,38.61
2018-08-06T15:18:44.356Z,39.48
2018-08-06T15:21:46.564Z,37.12
2018-08-06T15:24:48.923Z,35.23
2018-08-06T15:27:52.324Z,34.06
2018-08-06T15:30:54.589Z,33.87
2018-08-06T15:33:56.920Z,34.26
2018-08-06T15:36:59.407Z,35.72
2018-08-06T15:40:01.852Z,36.94
2018-08-06T15:43:04.300Z,37.65
2018-08-06T15:46:06.569Z,37.94
2018-08-06T15:49:08.914Z,36.64
2018-08-06T15:52:11.263Z,36.40
2018-08-06T15:55:13.665Z,37.54
2018-08-06T15:58:16.017Z,36.88
2018-08-06T16:01:18.308Z,37.60
2018-08-06T16:04:20.657Z,36.28
2018-08-06T16:07:22.981Z,36.23
2018-08-06T16:10:25.248Z,36.46
2018-08-06T16:13:27.610Z,37.22
2018-08-06T16:16:29.832Z,37.90
2018-08-06T16:19:32.169Z,38.20
2018-08-06T16:22:34.394Z,38.33
2018-08-06T16:25:36.679Z,38.30
2018-08-06T16:28:39.000Z,37.16
2018-08-06T16:31:41.361Z,36.64
2018-08-06T16:34:43.806Z,36.99
2018-08-06T16:37:46.373Z,37.00
2018-08-06T16:40:48.690Z,37.53
2018-08-06T16:43:51.500Z,38.85
2018-08-06T16:46:53.992Z,39.65
2018-08-06T16:49:56.223Z,40.32
2018-08-06T16:52:58.477Z,39.56
2018-08-06T16:56:00.727Z,39.50
2018-08-06T16:59:03.164Z,38.94
2018-08-06T17:02:05.459Z,39.81
2018-08-06T17:05:09.335Z,40.10
2018-08-06T17:08:11.704Z,40.19
2018-08-06T17:11:13.936Z,40.79
2018-08-06T17:14:17.484Z,39.57
2018-08-06T17:17:19.947Z,38.59
2018-08-06T17:20:22.854Z,38.46
2018-08-06T17:23:25.148Z,39.05
2018-08-06T17:26:54.755Z,38.79
2018-08-06T17:29:57.022Z,38.08
2018-08-06T17:32:59.357Z,38.56
2018-08-06T17:36:01.616Z,37.51
2018-08-06T17:39:07.757Z,35.83
2018-08-06T17:42:10.113Z,35.46
2018-08-06T17:45:15.775Z,35.33
2018-08-06T17:48:18.017Z,35.11
2018-08-06T17:51:20.380Z,35.30
2018-08-06T17:54:22.747Z,35.15
2018-08-06T17:57:24.984Z,35.04
2018-08-06T18:00:27.272Z,34.88
2018-08-06T18:03:29.496Z,34.81
2018-08-06T18:06:31.880Z,34.72
2018-08-06T18:09:34.189Z,34.64
2018-08-06T18:12:36.453Z,34.50
2018-08-06T18:15:38.780Z,34.52
2018-08-06T18:18:41.086Z,34.50
2018-08-06T18:21:43.348Z,34.41
2018-08-06T18:24:45.638Z,34.09
2018-08-06T18:27:48.761Z,33.84
2018-08-06T18:30:50.999Z,33.57
2018-08-06T18:33:53.209Z,33.14
2018-08-06T18:36:55.512Z,32.76
2018-08-06T18:39:57.846Z,32.21
2018-08-06T18:43:00.076Z,31.74
2018-08-06T18:46:02.415Z,31.32
2018-08-06T18:49:05.304Z,30.98
2018-08-06T18:52:07.698Z,30.53
2018-08-06T18:55:11.199Z,30.04
2018-08-06T18:58:13.533Z,29.56
2018-08-06T19:01:15.892Z,29.08
2018-08-06T19:04:18.159Z,28.66
2018-08-06T19:07:20.528Z,28.27
2018-08-06T19:10:23.901Z,27.90
2018-08-06T19:13:31.875Z,27.62
2018-08-06T19:16:34.218Z,27.33
2018-08-06T19:19:36.533Z,27.17
2018-08-06T19:22:38.920Z,27.04
2018-08-06T19:25:41.293Z,26.85
2018-08-06T19:28:43.608Z,26.62
2018-08-06T19:31:45.973Z,26.39
2018-08-06T19:34:48.304Z,26.19
2018-08-06T19:37:51.367Z,26.02
2018-08-06T19:40:53.682Z,25.92
2018-08-06T19:43:56.021Z,25.78
2018-08-06T19:46:58.377Z,25.64
2018-08-06T19:50:06.377Z,25.57
2018-08-06T19:53:08.694Z,25.46
2018-08-06T19:56:13.048Z,25.31
2018-08-06T19:59:15.424Z,25.18
2018-08-06T20:02:17.788Z,25.18
2018-08-06T20:05:20.156Z,25.15
2018-08-06T20:08:24.931Z,25.13
2018-08-06T20:11:30.827Z,24.95
2018-08-06T20:14:33.202Z,24.45
2018-08-06T20:17:35.552Z,24.35
2018-08-06T20:20:37.934Z,24.34
2018-08-06T20:23:40.292Z,24.34
2018-08-06T20:26:42.598Z,24.30
2018-08-06T20:29:44.981Z,24.28
2018-08-06T20:32:47.633Z,24.23
2018-08-06T20:35:50.036Z,24.21
2018-08-06T20:38:52.526Z,24.24
2018-08-06T20:41:54.833Z,24.30
2018-08-06T20:44:57.208Z,24.42
2018-08-06T20:47:59.525Z,24.50
2018-08-06T20:51:01.821Z,24.51
2018-08-06T20:54:04.162Z,24.49
2018-08-06T20:57:06.511Z,24.45
2018-08-06T21:00:11.268Z,24.40
2018-08-06T21:03:13.637Z,24.33
2018-08-06T21:06:15.916Z,24.23
2018-08-06T21:11:58.713Z,24.01
2018-08-06T21:15:01.044Z,23.91
2018-08-06T21:18:03.433Z,23.93
2018-08-06T21:21:05.758Z,23.96
2018-08-06T21:24:08.101Z,23.98
2018-08-06T21:27:10.376Z,23.91
2018-08-06T21:30:15.446Z,23.83
2018-08-06T21:33:17.763Z,23.79
2018-08-06T21:36:20.121Z,23.72
2018-08-06T21:39:22.488Z,23.64
2018-08-06T21:42:24.851Z,23.58
2018-08-06T21:45:27.220Z,23.52
2018-08-06T21:48:29.452Z,23.51
2018-08-06T21:51:31.845Z,23.45
2018-08-06T21:54:34.094Z,23.28
2018-08-06T21:57:36.360Z,23.15
2018-08-06T22:00:39.771Z,23.00
2018-08-06T22:03:42.096Z,22.55
2018-08-06T22:06:44.459Z,22.42
2018-08-06T22:09:47.779Z,22.42
2018-08-06T22:12:50.101Z,22.38
2018-08-06T22:15:52.375Z,22.33
2018-08-06T22:18:54.643Z,22.19
2018-08-06T22:21:56.939Z,22.07
2018-08-06T22:24:59.183Z,22.02
2018-08-06T22:28:01.474Z,21.96
2018-08-06T22:31:03.805Z,21.92
2018-08-06T22:34:06.074Z,21.81
2018-08-06T22:37:08.378Z,21.66
2018-08-06T22:40:11.858Z,21.48
2018-08-06T22:43:14.185Z,21.44
2018-08-06T22:46:16.544Z,21.43
2018-08-06T22:49:18.891Z,21.43
2018-08-06T22:52:21.103Z,21.31
2018-08-06T22:55:23.398Z,21.18
2018-08-06T22:58:25.685Z,21.01
2018-08-06T23:01:27.883Z,20.91
2018-08-06T23:04:30.143Z,20.90
2018-08-06T23:07:32.435Z,20.87
2018-08-06T23:10:34.717Z,20.85
2018-08-06T23:13:37.020Z,20.94
2018-08-06T23:16:39.361Z,20.91
2018-08-06T23:19:41.606Z,20.90
2018-08-06T23:22:43.904Z,20.82
2018-08-06T23:25:46.178Z,20.73
2018-08-06T23:28:48.463Z,20.68
2018-08-06T23:31:50.821Z,20.59
2018-08-06T23:34:54.141Z,20.51
2018-08-06T23:37:56.425Z,20.06
2018-08-06T23:40:58.719Z,19.99
2018-08-06T23:44:00.982Z,20.00
2018-08-06T23:47:03.361Z,19.95
2018-08-06T23:50:07.205Z,20.00
2018-08-06T23:53:09.567Z,20.04
2018-08-06T23:56:11.857Z,20.04
2018-08-06T23:59:14.177Z,20.04
